Terminal Aerodrome Forecast
Issued by NWS

Current Version | Previous Version | Text Only | Print | Product List | Glossary Off
Versions: 1 2 3 4 5 6 7 8 9 10 11 12 13 14 15 16 17 18 19 20 21 22 23 24 25 26 27 28 29 30 31 32 33 34

782
FTUS41 KRNK 212054 AAA
TAFLWB
TAF AMD
KLWB 212054Z 2121/2218 VRB03KT P6SM SCT025
     FM220300 29003KT P6SM BKN025
     FM220800 31006KT P6SM SCT025
     FM221200 33008KT P6SM SCT150=

USA.gov is the U.S. government's official web portal to all federal, state and local government web resources and services.